Archival Weather

General Ignacio P Garcia Intl

General Ignacio P Garcia Intl, Mexico (MMHO)

Report from: Wednesday, December 6, 2023 10:42 AM CST
Current time: Friday, February 23, 2024 3:15 PM CST

Current weather – Weather history – Daily summaries
Weather forecast

Temperature18.0°C (64.4°F)
Dew point0.0°C (32.0°F)
Winds Calm
Visibility10 mi. (16.1 km)
Clouds Few clouds 9,000 ft. (2,743 m)
Ceiling: Broken clouds 20,000 ft. (6,096 m)
Altimeter30.09 in.Hg (1019 mB)
Relative humidity30 %
Density altitude256 ft. (78 m)
Flight conditions Visual Meteorological Conditions
Raw dataMMHO 061642Z 00000KT 10SM FEW090 BKN200 18/00 A3009 RMK 8/038 HZY
An error has occurred. This application may no longer respond until reloaded. Reload 🗙